Time;durP1;ratioP1;P1;durP2;ratioP2;P2;SDS_P1;SDS_P2;PMS_P1;PMS_P2;Temp;Humidity;BMP_temperature;BMP_pressure;BME280_temperature;BME280_humidity;BME280_pressure;Samples;Min_cycle;Max_cycle;Signal;HPM_P1;HPM_P2
2022/09/21 00:01:51;;;;;;;0.70;0.40;;;8.50;99.90;;;;;;5114599;28;20535;-79
2022/09/21 00:04:18;;;;;;;0.70;0.57;;;8.50;99.90;;;;;;5114200;28;20845;-79
2022/09/21 00:06:45;;;;;;;1.00;0.53;;;8.50;99.90;;;;;;5114288;28;20483;-79
2022/09/21 00:09:12;;;;;;;0.40;0.40;;;8.40;99.90;;;;;;5114438;28;20476;-79
2022/09/21 00:11:39;;;;;;;0.50;0.50;;;8.40;99.90;;;;;;5114486;28;20455;-79
2022/09/21 00:14:11;;;;;;;0.50;0.30;;;8.40;99.90;;;;;;5114387;28;20463;-79
2022/09/21 00:16:38;;;;;;;1.20;0.43;;;8.40;99.90;;;;;;5114410;28;20442;-79
2022/09/21 00:19:05;;;;;;;0.30;0.30;;;8.40;99.90;;;;;;5114351;28;20225;-79
2022/09/21 00:21:33;;;;;;;0.60;0.60;;;8.40;99.90;;;;;;5114254;28;20482;-79
2022/09/21 00:24:01;;;;;;;0.40;0.40;;;8.30;99.90;;;;;;5114257;28;20884;-79
2022/09/21 00:26:28;;;;;;;1.43;0.67;;;8.30;99.90;;;;;;5114013;28;20526;-79
2022/09/21 00:28:56;;;;;;;0.93;0.30;;;8.30;99.90;;;;;;5114221;28;20427;-79
2022/09/21 00:31:25;;;;;;;3.00;0.60;;;8.30;99.90;;;;;;5114381;28;20454;-79
2022/09/21 00:33:53;;;;;;;1.95;0.57;;;8.20;99.90;;;;;;5114064;28;20471;-79
2022/09/21 00:36:21;;;;;;;1.33;0.90;;;8.20;99.90;;;;;;5113771;28;20205;-79
2022/09/21 00:38:51;;;;;;;0.30;0.30;;;8.20;99.90;;;;;;5114034;28;20447;-79
2022/09/21 00:41:18;;;;;;;0.80;0.57;;;8.20;99.90;;;;;;5113946;28;20482;-79
2022/09/21 00:43:47;;;;;;;0.40;0.30;;;8.20;99.90;;;;;;5113621;28;20224;-79
2022/09/21 00:46:21;;;;;;;12.40;1.53;;;8.20;99.90;;;;;;5113654;28;20446;-79
2022/09/21 00:48:49;;;;;;;0.30;0.30;;;8.20;99.90;;;;;;5113360;28;20424;-79
2022/09/21 00:51:16;;;;;;;0.40;0.30;;;8.20;99.90;;;;;;5113910;28;20446;-79
2022/09/21 00:53:43;;;;;;;1.03;0.60;;;8.20;99.90;;;;;;5113778;28;20475;-79
2022/09/21 00:56:11;;;;;;;0.80;0.60;;;8.20;99.90;;;;;;5113522;28;20800;-79
2022/09/21 00:58:43;;;;;;;1.27;1.27;;;8.20;99.90;;;;;;5113833;28;20212;-79
2022/09/21 01:01:10;;;;;;;0.90;0.50;;;8.10;99.90;;;;;;5113759;28;20490;-79
2022/09/21 01:03:39;;;;;;;0.30;0.30;;;8.20;99.90;;;;;;5113695;28;20470;-79
2022/09/21 01:06:07;;;;;;;0.80;0.70;;;8.10;99.90;;;;;;5113757;28;20205;-79
2022/09/21 01:08:36;;;;;;;0.40;0.40;;;8.10;99.90;;;;;;5113417;28;20443;-79
2022/09/21 01:11:31;;;;;;;1.50;0.53;;;8.20;99.90;;;;;;5113670;28;20498;-79
2022/09/21 01:14:30;;;;;;;0.50;0.40;;;8.10;99.90;;;;;;5104370;28;20478;-79
2022/09/21 01:17:06;;;;;;;0.40;0.40;;;8.00;99.90;;;;;;5113215;28;20450;-79
2022/09/21 01:20:07;;;;;;;0.40;0.30;;;8.00;99.90;;;;;;5113691;28;20812;-79
2022/09/21 01:22:49;;;;;;;0.97;0.60;;;7.90;99.90;;;;;;5113741;28;20474;-79
2022/09/21 01:25:31;;;;;;;1.63;0.47;;;7.90;99.90;;;;;;5113579;28;20434;-79
2022/09/21 01:28:07;;;;;;;0.30;0.30;;;7.80;99.90;;;;;;5113337;28;20474;-78
2022/09/21 01:30:38;;;;;;;0.70;0.43;;;7.80;99.90;;;;;;5113549;28;20431;-78
2022/09/21 01:33:09;;;;;;;1.80;0.70;;;7.80;99.90;;;;;;5113444;28;20458;-79
2022/09/21 01:35:39;;;;;;;0.40;0.30;;;7.80;99.90;;;;;;5113204;28;20185;-79
2022/09/21 01:38:10;;;;;;;0.77;0.60;;;7.80;99.90;;;;;;5113522;28;20764;-79
2022/09/21 01:40:41;;;;;;;0.50;0.30;;;7.80;99.90;;;;;;5113375;28;20427;-79
2022/09/21 01:43:12;;;;;;;0.60;0.50;;;7.80;99.90;;;;;;5113379;28;20470;-79
2022/09/21 01:45:45;;;;;;;0.40;0.40;;;7.80;99.90;;;;;;5113120;28;20484;-79
2022/09/21 01:48:14;;;;;;;2.30;1.10;;;7.70;99.90;;;;;;5113391;28;20430;-79
2022/09/21 01:50:45;;;;;;;0.80;0.70;;;7.70;99.90;;;;;;5113401;28;20205;-79
2022/09/21 01:53:17;;;;;;;0.87;0.40;;;7.70;99.90;;;;;;5113316;28;20463;-79
2022/09/21 01:55:48;;;;;;;1.25;0.65;;;7.70;99.90;;;;;;5113286;28;20431;-79
2022/09/21 01:58:24;;;;;;;0.50;0.50;;;7.70;99.90;;;;;;5113363;28;20189;-79
2022/09/21 02:00:55;;;;;;;2.30;0.60;;;7.60;99.90;;;;;;5115415;28;21015;-79
2022/09/21 02:03:27;;;;;;;1.07;0.47;;;7.60;99.90;;;;;;5116953;28;20467;-79
2022/09/21 02:05:56;;;;;;;0.70;0.40;;;7.60;99.90;;;;;;5116668;28;20475;-79
2022/09/21 02:08:25;;;;;;;0.37;0.33;;;7.60;99.90;;;;;;5116931;28;20443;-79
2022/09/21 02:10:53;;;;;;;0.30;0.30;;;7.60;99.90;;;;;;5116540;28;20477;-78
2022/09/21 02:13:26;;;;;;;0.30;0.30;;;7.60;99.90;;;;;;5116751;28;20471;-78
2022/09/21 02:16:11;;;;;;;0.60;0.60;;;7.60;99.90;;;;;;5116781;28;20479;-78
2022/09/21 02:18:47;;;;;;;0.30;0.30;;;7.70;99.90;;;;;;5116410;28;20918;-78
2022/09/21 02:21:22;;;;;;;0.70;0.40;;;7.60;99.90;;;;;;5116621;28;20477;-79
2022/09/21 02:23:56;;;;;;;0.60;0.30;;;7.60;99.90;;;;;;5116572;28;20470;-79
2022/09/21 02:26:28;;;;;;;0.73;0.73;;;7.60;99.90;;;;;;5116340;28;20437;-79
2022/09/21 02:29:01;;;;;;;1.80;0.60;;;7.50;99.90;;;;;;5117374;28;20431;-79
2022/09/21 02:31:36;;;;;;;0.40;0.40;;;7.50;99.90;;;;;;5116712;28;20421;-79
2022/09/21 02:34:10;;;;;;;0.30;0.30;;;7.40;99.90;;;;;;5116412;28;20539;-79
2022/09/21 02:36:43;;;;;;;0.30;0.30;;;7.40;99.90;;;;;;5116405;28;20431;-79
2022/09/21 02:39:15;;;;;;;0.40;0.40;;;7.30;99.90;;;;;;5116623;28;20438;-79
2022/09/21 02:41:55;;;;;;;0.40;0.30;;;7.30;99.90;;;;;;5116264;28;20463;-79
2022/09/21 02:44:32;;;;;;;0.60;0.50;;;7.30;99.90;;;;;;5116210;28;20819;-79
2022/09/21 02:47:04;;;;;;;0.40;0.40;;;7.30;99.90;;;;;;5115916;28;20280;-79
2022/09/21 02:49:35;;;;;;;0.40;0.40;;;7.30;99.90;;;;;;5116189;28;20181;-79
2022/09/21 02:52:07;;;;;;;1.23;0.50;;;7.30;99.90;;;;;;5116666;28;20786;-79
2022/09/21 02:54:34;;;;;;;0.30;0.30;;;7.20;99.90;;;;;;5115977;28;20470;-78
2022/09/21 02:57:03;;;;;;;0.40;0.40;;;7.30;99.90;;;;;;5115954;28;20470;-78
2022/09/21 02:59:31;;;;;;;0.50;0.43;;;7.30;99.90;;;;;;5115935;28;20447;-78
2022/09/21 03:01:58;;;;;;;0.40;0.30;;;7.30;99.90;;;;;;5115497;28;21008;-78
2022/09/21 03:04:26;;;;;;;0.60;0.30;;;7.20;99.90;;;;;;5115744;28;20467;-79
2022/09/21 03:06:53;;;;;;;0.90;0.47;;;7.20;99.90;;;;;;5115834;28;20498;-79
2022/09/21 03:09:23;;;;;;;0.40;0.40;;;7.20;99.90;;;;;;5115711;28;20451;-79
2022/09/21 03:11:50;;;;;;;0.40;0.40;;;7.20;99.90;;;;;;5115014;28;20445;-78
2022/09/21 03:14:18;;;;;;;0.30;0.30;;;7.20;99.90;;;;;;5115583;28;20462;-78
2022/09/21 03:16:45;;;;;;;1.50;0.50;;;7.20;99.90;;;;;;5115581;28;20469;-78
2022/09/21 03:19:12;;;;;;;0.47;0.47;;;7.20;99.90;;;;;;5115208;28;20930;-78
2022/09/21 03:21:40;;;;;;;1.10;0.70;;;7.20;99.90;;;;;;5115424;28;20483;-78
2022/09/21 03:24:07;;;;;;;1.03;0.63;;;7.20;99.90;;;;;;5115366;28;20463;-78
2022/09/21 03:26:34;;;;;;;0.40;0.40;;;7.20;99.90;;;;;;5114874;28;20965;-78
2022/09/21 03:29:02;;;;;;;0.40;0.40;;;7.10;99.90;;;;;;5115407;28;20480;-78
2022/09/21 03:31:30;;;;;;;1.00;0.50;;;7.20;99.90;;;;;;5115261;28;20454;-78
2022/09/21 03:33:56;;;;;;;0.60;0.47;;;7.10;99.90;;;;;;5114897;28;20477;-78
2022/09/21 03:36:23;;;;;;;0.30;0.30;;;7.10;99.90;;;;;;5115191;28;20439;-78
2022/09/21 03:38:51;;;;;;;0.50;0.50;;;7.20;99.90;;;;;;5114819;28;20786;-78
2022/09/21 03:41:18;;;;;;;1.00;0.40;;;7.10;99.90;;;;;;5115263;28;20205;-78
2022/09/21 03:43:44;;;;;;;0.40;0.30;;;7.10;99.90;;;;;;5114652;28;20587;-78
2022/09/21 03:46:11;;;;;;;0.50;0.50;;;7.00;99.90;;;;;;5115012;28;20548;-78
2022/09/21 03:48:39;;;;;;;0.30;0.23;;;7.00;99.90;;;;;;5114912;28;20447;-78
2022/09/21 03:51:06;;;;;;;0.30;0.30;;;7.00;99.90;;;;;;5115130;28;20447;-78
2022/09/21 03:53:32;;;;;;;0.50;0.40;;;7.00;99.90;;;;;;5114797;28;20841;-79
2022/09/21 03:56:01;;;;;;;1.00;0.30;;;7.00;99.90;;;;;;5114780;28;20446;-78
2022/09/21 03:58:28;;;;;;;0.50;0.50;;;7.00;99.90;;;;;;5114738;28;20517;-78
2022/09/21 04:00:54;;;;;;;0.40;0.30;;;7.00;99.90;;;;;;5114919;28;20447;-78
2022/09/21 04:03:21;;;;;;;1.23;0.40;;;6.90;99.90;;;;;;5114460;28;20478;-78
2022/09/21 04:05:48;;;;;;;0.30;0.30;;;6.90;99.90;;;;;;5114313;28;20451;-78
2022/09/21 04:08:15;;;;;;;0.60;0.50;;;6.90;99.90;;;;;;5114546;28;20450;-78
2022/09/21 04:10:42;;;;;;;0.50;0.50;;;6.90;99.90;;;;;;5114487;28;20453;-78
2022/09/21 04:13:11;;;;;;;0.70;0.40;;;7.00;99.90;;;;;;5114447;28;20468;-78
2022/09/21 04:15:37;;;;;;;0.40;0.30;;;6.90;99.90;;;;;;5114434;28;20451;-78
2022/09/21 04:18:05;;;;;;;0.60;0.40;;;7.00;99.90;;;;;;5114388;28;20447;-78
2022/09/21 04:20:32;;;;;;;0.63;0.63;;;7.00;99.90;;;;;;5114051;28;20996;-78
2022/09/21 04:22:58;;;;;;;0.80;0.37;;;7.00;99.90;;;;;;5113533;28;20232;-78
2022/09/21 04:25:25;;;;;;;1.23;0.60;;;7.00;99.90;;;;;;5114033;28;20447;-78
2022/09/21 04:27:52;;;;;;;0.40;0.40;;;7.00;99.90;;;;;;5113872;28;20478;-78
2022/09/21 04:30:20;;;;;;;0.60;0.30;;;6.90;99.90;;;;;;5114185;28;21036;-78
2022/09/21 04:32:47;;;;;;;1.00;0.93;;;6.90;99.90;;;;;;5113789;28;20443;-78
2022/09/21 04:35:14;;;;;;;2.60;0.50;;;7.00;99.90;;;;;;5114133;28;20470;-79
2022/09/21 04:37:41;;;;;;;0.30;0.20;;;7.00;99.90;;;;;;5113812;28;20445;-78
2022/09/21 04:40:08;;;;;;;3.30;0.70;;;7.00;99.90;;;;;;5114048;28;20451;-79
2022/09/21 04:42:35;;;;;;;0.50;0.40;;;7.00;99.90;;;;;;5113917;28;20898;-78
2022/09/21 04:45:02;;;;;;;1.23;0.40;;;7.00;99.90;;;;;;5113958;28;20451;-78
2022/09/21 04:47:31;;;;;;;0.77;0.73;;;7.10;99.90;;;;;;5113931;28;20456;-78
2022/09/21 04:49:58;;;;;;;0.37;0.30;;;7.10;99.90;;;;;;5113976;28;20446;-78
2022/09/21 04:52:25;;;;;;;0.50;0.50;;;7.10;99.90;;;;;;5113722;28;20450;-78
2022/09/21 04:54:52;;;;;;;0.60;0.50;;;7.10;99.90;;;;;;5113820;28;20470;-78
2022/09/21 04:57:18;;;;;;;0.40;0.40;;;7.00;99.90;;;;;;5113826;28;20812;-78
2022/09/21 04:59:45;;;;;;;0.40;0.30;;;7.00;99.90;;;;;;5113797;28;20447;-78
2022/09/21 05:02:12;;;;;;;0.50;0.33;;;7.00;99.90;;;;;;5113735;28;20482;-79
2022/09/21 05:04:40;;;;;;;0.50;0.50;;;7.00;99.90;;;;;;5113739;28;20470;-78
2022/09/21 05:07:06;;;;;;;2.20;0.40;;;6.90;99.90;;;;;;5113747;28;20438;-78
2022/09/21 05:12:17;;;;;;;1.03;1.03;;;6.90;99.90;;;;;;5113797;28;20434;-79
2022/09/21 05:14:44;;;;;;;1.17;0.87;;;6.80;99.90;;;;;;5113274;28;20986;-79
2022/09/21 05:17:11;;;;;;;1.17;0.60;;;6.70;99.90;;;;;;5113623;28;20450;-78
2022/09/21 05:19:39;;;;;;;0.30;0.30;;;6.70;99.90;;;;;;5113328;28;20962;-78
2022/09/21 05:22:06;;;;;;;2.40;1.37;;;6.70;99.90;;;;;;5113526;28;20466;-79
2022/09/21 05:24:32;;;;;;;1.90;0.50;;;6.70;99.90;;;;;;5113525;28;20469;-78
2022/09/21 05:26:59;;;;;;;1.63;1.47;;;6.60;99.90;;;;;;5113315;28;20561;-78
2022/09/21 05:29:26;;;;;;;1.00;0.57;;;6.60;99.90;;;;;;5113566;28;20431;-78
2022/09/21 05:31:59;;;;;;;1.40;0.50;;;6.60;99.90;;;;;;5113231;28;20939;-78
2022/09/21 05:34:45;;;;;;;0.70;0.30;;;6.70;99.90;;;;;;5114267;28;21023;-78
2022/09/21 05:37:23;;;;;;;0.73;0.60;;;6.70;99.90;;;;;;5117245;28;20427;-78
2022/09/21 05:39:50;;;;;;;0.50;0.37;;;6.60;99.90;;;;;;5117551;28;20427;-78
2022/09/21 05:42:17;;;;;;;0.40;0.33;;;6.60;99.90;;;;;;5117320;28;20485;-78
2022/09/21 05:44:44;;;;;;;0.40;0.30;;;6.70;99.90;;;;;;5117022;28;20470;-79
2022/09/21 05:47:23;;;;;;;1.90;0.40;;;6.60;99.90;;;;;;5117305;28;20451;-78
2022/09/21 05:50:00;;;;;;;0.50;0.30;;;6.70;99.90;;;;;;5117365;28;20431;-78
2022/09/21 05:52:35;;;;;;;0.40;0.30;;;6.70;99.90;;;;;;5117259;28;20423;-78
2022/09/21 05:55:11;;;;;;;0.40;0.30;;;6.80;99.90;;;;;;5117288;28;20538;-78
2022/09/21 05:57:46;;;;;;;0.30;0.30;;;6.80;99.90;;;;;;5117162;28;20427;-78
2022/09/21 06:00:17;;;;;;;0.60;0.50;;;6.80;99.90;;;;;;5116826;28;20189;-78
2022/09/21 06:03:15;;;;;;;0.60;0.50;;;6.90;99.90;;;;;;5116928;28;20463;-78
2022/09/21 06:05:43;;;;;;;0.40;0.30;;;6.90;99.90;;;;;;5116734;28;20926;-78
2022/09/21 06:08:10;;;;;;;0.60;0.60;;;6.90;99.90;;;;;;5116924;28;20439;-78
2022/09/21 06:10:37;;;;;;;2.40;0.97;;;6.90;99.90;;;;;;5116876;28;20441;-78
2022/09/21 06:13:03;;;;;;;1.17;0.90;;;7.00;99.90;;;;;;5116732;28;20459;-78
2022/09/21 06:15:30;;;;;;;1.00;0.50;;;7.10;99.90;;;;;;5116704;28;20442;-78
2022/09/21 06:17:58;;;;;;;0.70;0.50;;;7.90;99.90;;;;;;5117565;28;20443;-78
2022/09/21 06:20:25;;;;;;;0.87;0.87;;;9.00;99.90;;;;;;5116371;28;20450;-78
2022/09/21 06:22:53;;;;;;;1.33;0.40;;;10.20;99.90;;;;;;5116526;28;20509;-78
2022/09/21 06:25:20;;;;;;;0.40;0.40;;;10.60;99.90;;;;;;5116607;28;20447;-79
2022/09/21 06:27:47;;;;;;;1.20;0.50;;;10.40;99.90;;;;;;5116118;28;20539;-79
2022/09/21 06:30:14;;;;;;;0.60;0.40;;;10.10;99.90;;;;;;5116582;28;20205;-78
2022/09/21 06:32:41;;;;;;;0.60;0.60;;;9.70;99.90;;;;;;5116417;28;20443;-78
2022/09/21 06:35:08;;;;;;;1.15;0.50;;;9.30;99.90;;;;;;5116355;28;20450;-78
2022/09/21 06:37:37;;;;;;;1.73;0.60;;;9.00;99.90;;;;;;5116671;28;20192;-78
2022/09/21 06:40:06;;;;;;;1.63;0.67;;;8.80;99.90;;;;;;5116332;28;20201;-78
2022/09/21 06:42:33;;;;;;;0.60;0.53;;;8.60;99.90;;;;;;5116071;28;20494;-78
2022/09/21 06:45:00;;;;;;;0.33;0.30;;;8.60;99.90;;;;;;5115954;28;20428;-78
2022/09/21 06:47:26;;;;;;;0.67;0.67;;;8.50;99.90;;;;;;5115095;28;20538;-78
2022/09/21 06:49:53;;;;;;;0.50;0.50;;;8.50;99.90;;;;;;5116346;28;20454;-78
2022/09/21 06:52:20;;;;;;;0.70;0.53;;;8.50;99.90;;;;;;5116010;28;20972;-78
2022/09/21 06:54:46;;;;;;;0.67;0.50;;;8.50;99.90;;;;;;5116037;28;20470;-78
2022/09/21 06:57:14;;;;;;;1.23;0.60;;;8.50;99.90;;;;;;5116043;28;20533;-78
2022/09/21 06:59:41;;;;;;;0.90;0.40;;;8.60;99.90;;;;;;5115684;28;20446;-78
2022/09/21 07:02:10;;;;;;;0.60;0.50;;;8.60;99.90;;;;;;5115829;28;20439;-78
2022/09/21 07:04:37;;;;;;;0.50;0.50;;;8.70;99.90;;;;;;5115718;28;20550;-78
2022/09/21 07:07:04;;;;;;;1.07;0.70;;;8.70;99.90;;;;;;5115813;28;20455;-78
2022/09/21 07:09:30;;;;;;;0.60;0.60;;;8.70;99.90;;;;;;5115414;28;20930;-78
2022/09/21 07:11:58;;;;;;;0.60;0.60;;;8.80;99.90;;;;;;5115705;28;20447;-78
2022/09/21 07:14:26;;;;;;;0.93;0.93;;;8.80;99.90;;;;;;5115459;28;20528;-78
2022/09/21 07:16:53;;;;;;;1.97;0.80;;;8.90;99.90;;;;;;5115578;28;20443;-78
2022/09/21 07:19:20;;;;;;;1.50;0.60;;;9.00;99.90;;;;;;5115249;28;20446;-78
2022/09/21 07:21:46;;;;;;;1.70;0.60;;;9.10;99.90;;;;;;5115440;28;20447;-79
2022/09/21 07:24:13;;;;;;;1.67;0.33;;;9.20;99.90;;;;;;5115307;28;20491;-79
2022/09/21 07:26:40;;;;;;;1.60;0.63;;;9.50;99.90;;;;;;5115051;28;20450;-79
2022/09/21 07:29:07;;;;;;;2.70;1.03;;;9.60;99.90;;;;;;5115356;28;20431;-79
2022/09/21 07:31:35;;;;;;;0.67;0.47;;;9.70;99.90;;;;;;5115038;28;20439;-78
2022/09/21 07:34:02;;;;;;;0.63;0.63;;;9.80;99.90;;;;;;5114852;28;20467;-79
2022/09/21 07:36:29;;;;;;;0.85;0.70;;;10.00;99.90;;;;;;5115210;28;20446;-79
2022/09/21 07:38:55;;;;;;;0.50;0.50;;;10.10;99.90;;;;;;5114852;28;20703;-79
2022/09/21 07:41:22;;;;;;;0.90;0.60;;;10.20;99.90;;;;;;5115069;28;20450;-79
2022/09/21 07:43:49;;;;;;;0.60;0.50;;;10.40;99.90;;;;;;5114603;28;20868;-79
2022/09/21 07:46:16;;;;;;;0.47;0.33;;;10.60;99.90;;;;;;5114672;28;20946;-79
2022/09/21 07:48:44;;;;;;;0.57;0.50;;;10.80;99.90;;;;;;5114952;28;20450;-79
2022/09/21 07:51:12;;;;;;;1.70;0.50;;;10.90;99.90;;;;;;5114584;28;20961;-79
2022/09/21 07:53:41;;;;;;;1.03;0.70;;;11.10;99.90;;;;;;5114732;28;20464;-79
2022/09/21 07:56:09;;;;;;;0.40;0.40;;;11.20;99.90;;;;;;5114780;28;20439;-79
2022/09/21 08:01:22;;;;;;;0.40;0.33;;;11.50;99.90;;;;;;5114837;28;20418;-79
2022/09/21 08:03:50;;;;;;;0.40;0.40;;;11.70;99.90;;;;;;5114551;28;20569;-79
2022/09/21 08:06:18;;;;;;;2.10;0.40;;;11.80;99.90;;;;;;5114634;28;20443;-79
2022/09/21 08:08:47;;;;;;;0.30;0.30;;;12.00;99.90;;;;;;5114652;28;20492;-79
2022/09/21 08:11:15;;;;;;;0.40;0.40;;;12.00;99.90;;;;;;5114580;28;20504;-79
2022/09/21 08:13:41;;;;;;;0.32;0.30;;;12.10;99.90;;;;;;5114492;28;20459;-79
2022/09/21 08:16:09;;;;;;;0.50;0.40;;;12.20;99.90;;;;;;5114476;28;20224;-79
2022/09/21 08:18:36;;;;;;;0.40;0.30;;;12.40;99.90;;;;;;5114419;28;20443;-79
2022/09/21 08:21:05;;;;;;;0.40;0.30;;;12.50;99.90;;;;;;5114252;28;20447;-79
2022/09/21 08:23:32;;;;;;;0.43;0.30;;;12.60;99.90;;;;;;5113937;28;20887;-79
2022/09/21 08:26:00;;;;;;;0.40;0.40;;;12.70;99.90;;;;;;5114257;28;20212;-79
2022/09/21 08:28:27;;;;;;;0.47;0.40;;;12.80;99.90;;;;;;5113762;28;20888;-79
2022/09/21 08:30:53;;;;;;;0.40;0.30;;;12.80;99.90;;;;;;5114061;28;20447;-79
2022/09/21 08:33:20;;;;;;;0.63;0.40;;;12.80;99.90;;;;;;5113669;28;20459;-79
2022/09/21 08:35:52;;;;;;;0.50;0.40;;;13.00;99.90;;;;;;5113950;28;20442;-80
2022/09/21 08:38:20;;;;;;;0.40;0.40;;;13.20;99.90;;;;;;5114053;28;20427;-79
2022/09/21 08:40:48;;;;;;;1.17;0.50;;;13.30;99.90;;;;;;5113899;28;20455;-79
2022/09/21 08:43:18;;;;;;;0.30;0.30;;;13.50;99.90;;;;;;5113374;28;20989;-80
2022/09/21 08:45:46;;;;;;;0.50;0.40;;;13.60;99.90;;;;;;5113804;28;20810;-79
2022/09/21 08:48:20;;;;;;;0.35;0.30;;;13.70;99.90;;;;;;5113497;28;20593;-80
2022/09/21 08:50:51;;;;;;;3.10;0.50;;;13.80;99.90;;;;;;5113789;28;20193;-80
2022/09/21 08:53:25;;;;;;;0.37;0.30;;;14.00;99.90;;;;;;5113723;28;20471;-79
2022/09/21 08:55:55;;;;;;;0.80;0.50;;;14.10;99.90;;;;;;5113419;28;20936;-79
2022/09/21 08:58:24;;;;;;;0.77;0.40;;;14.30;99.90;;;;;;5113596;28;20451;-80
2022/09/21 09:01:05;;;;;;;0.50;0.40;;;14.50;99.90;;;;;;5113434;28;20771;-80
2022/09/21 09:03:53;;;;;;;0.40;0.33;;;14.80;99.90;;;;;;5113510;28;20221;-80
2022/09/21 09:06:26;;;;;;;0.30;0.30;;;14.90;99.90;;;;;;5113673;28;20497;-80
2022/09/21 09:09:19;;;;;;;0.40;0.40;;;15.00;99.90;;;;;;5113787;28;20189;-80
2022/09/21 09:12:01;;;;;;;0.40;0.35;;;14.90;99.90;;;;;;5118012;28;20459;-81
2022/09/21 09:14:42;;;;;;;0.60;0.40;;;14.90;99.90;;;;;;5117949;28;20228;-80
2022/09/21 09:17:30;;;;;;;0.40;0.30;;;14.80;99.90;;;;;;5117643;28;20427;-80
2022/09/21 09:20:04;;;;;;;0.83;0.50;;;14.80;99.90;;;;;;5117573;28;20902;-80
2022/09/21 09:22:37;;;;;;;0.40;0.40;;;14.90;99.90;;;;;;5117775;28;20462;-80
2022/09/21 09:25:13;;;;;;;0.40;0.40;;;14.90;99.90;;;;;;5117775;28;20467;-81
2022/09/21 09:27:44;;;;;;;0.97;0.70;;;15.00;99.90;;;;;;5117200;28;20481;-80
2022/09/21 09:30:17;;;;;;;0.40;0.33;;;15.10;99.90;;;;;;5118459;28;20454;-80
2022/09/21 09:32:52;;;;;;;0.40;0.40;;;15.10;99.90;;;;;;5117569;28;20434;-80
2022/09/21 09:35:25;;;;;;;0.40;0.40;;;15.30;99.90;;;;;;5117604;28;20192;-80
2022/09/21 09:37:54;;;;;;;0.30;0.30;;;15.40;99.90;;;;;;5117224;28;20582;-81
2022/09/21 09:40:38;;;;;;;0.50;0.40;;;15.60;99.90;;;;;;5117404;28;20451;-80
2022/09/21 09:43:09;;;;;;;0.40;0.30;;;15.70;99.90;;;;;;5116984;28;20711;-81
2022/09/21 09:45:50;;;;;;;0.30;0.30;;;15.80;99.90;;;;;;5117131;28;20937;-79
2022/09/21 09:48:38;;;;;;;0.30;0.30;;;16.00;99.90;;;;;;5117038;28;20423;-79
2022/09/21 09:51:05;;;;;;;0.30;0.30;;;16.10;99.90;;;;;;5117279;28;20432;-80
2022/09/21 09:53:32;;;;;;;0.80;0.30;;;16.10;99.90;;;;;;5117109;28;20463;-80
2022/09/21 09:56:01;;;;;;;0.40;0.30;;;16.10;99.90;;;;;;5117143;28;20472;-79
2022/09/21 09:58:37;;;;;;;0.50;0.30;;;16.10;99.90;;;;;;5116822;28;20819;-80
2022/09/21 10:01:04;;;;;;;0.60;0.40;;;16.10;99.90;;;;;;5116795;28;20434;-80
2022/09/21 10:03:31;;;;;;;0.30;0.30;;;16.10;99.90;;;;;;5116530;28;20844;-80
2022/09/21 10:05:58;;;;;;;0.40;0.40;;;16.20;99.90;;;;;;5116961;28;20447;-80
2022/09/21 10:08:41;;;;;;;0.40;0.30;;;16.20;99.90;;;;;;5116667;28;20924;-80
2022/09/21 10:11:11;;;;;;;0.40;0.30;;;16.60;99.90;;;;;;5116905;28;20433;-80
2022/09/21 10:13:40;;;;;;;0.32;0.30;;;17.00;99.90;;;;;;5116524;28;20458;-81
2022/09/21 10:16:13;;;;;;;0.37;0.30;;;17.20;99.90;;;;;;5116796;28;20201;-81
2022/09/21 10:18:44;;;;;;;0.40;0.30;;;17.20;99.90;;;;;;5116887;28;20427;-79
2022/09/21 10:21:18;;;;;;;0.50;0.40;;;16.90;99.90;;;;;;5116373;28;20907;-80
2022/09/21 10:23:47;;;;;;;0.53;0.30;;;16.80;99.90;;;;;;5116574;28;20229;-78
2022/09/21 10:26:18;;;;;;;0.40;0.30;;;16.50;99.90;;;;;;5116319;28;20827;-79
2022/09/21 10:28:56;;;;;;;0.50;0.40;;;16.40;99.90;;;;;;5116255;28;20475;-78
2022/09/21 10:31:25;;;;;;;0.60;0.40;;;16.40;99.90;;;;;;5116587;28;20436;-79
2022/09/21 10:33:54;;;;;;;1.13;0.40;;;16.30;99.90;;;;;;5116438;28;20463;-79
2022/09/21 10:36:39;;;;;;;0.40;0.33;;;16.30;99.90;;;;;;5116421;28;20454;-79
2022/09/21 10:39:18;;;;;;;0.60;0.30;;;16.50;99.90;;;;;;5116456;28;20426;-79
2022/09/21 10:41:51;;;;;;;0.30;0.30;;;16.80;99.90;;;;;;5116347;28;20481;-80
2022/09/21 10:44:19;;;;;;;0.40;0.30;;;16.90;99.90;;;;;;5115853;28;20482;-78
2022/09/21 10:46:48;;;;;;;0.40;0.30;;;17.00;99.90;;;;;;5116173;28;20439;-79
2022/09/21 10:49:21;;;;;;;0.40;0.30;;;17.30;99.90;;;;;;5116147;28;20454;-79
2022/09/21 10:51:51;;;;;;;0.83;0.40;;;17.50;99.90;;;;;;5116142;28;20427;-78
2022/09/21 10:54:23;;;;;;;0.40;0.40;;;17.60;99.90;;;;;;5116019;28;20467;-78
2022/09/21 10:56:54;;;;;;;0.60;0.40;;;17.40;99.90;;;;;;5116021;28;20460;-79
2022/09/21 10:59:24;;;;;;;0.30;0.30;;;17.00;99.90;;;;;;5115691;28;20430;-78
2022/09/21 11:01:53;;;;;;;0.30;0.30;;;16.70;99.90;;;;;;5115897;28;20446;-78
2022/09/21 11:04:26;;;;;;;0.40;0.40;;;16.40;99.90;;;;;;5115742;28;20475;-79
2022/09/21 11:06:58;;;;;;;0.37;0.37;;;16.20;99.90;;;;;;5115870;28;20431;-79
2022/09/21 11:09:31;;;;;;;0.30;0.30;;;16.20;99.90;;;;;;5115827;28;20484;-78
2022/09/21 11:12:06;;;;;;;0.40;0.30;;;16.10;99.90;;;;;;5115414;28;20435;-79
2022/09/21 11:14:43;;;;;;;0.30;0.30;;;16.10;99.90;;;;;;5115640;28;20463;-78
2022/09/21 11:17:13;;;;;;;0.40;0.30;;;16.20;99.90;;;;;;5115644;28;20438;-78
2022/09/21 11:19:47;;;;;;;0.30;0.30;;;16.30;99.90;;;;;;5115637;28;20461;-79
2022/09/21 11:22:22;;;;;;;0.40;0.30;;;16.40;99.90;;;;;;5115252;28;20432;-79
2022/09/21 11:24:54;;;;;;;0.30;0.30;;;16.50;99.90;;;;;;5115372;28;20482;-80
2022/09/21 11:27:25;;;;;;;0.40;0.30;;;16.40;99.90;;;;;;5115152;28;20233;-79
2022/09/21 11:30:01;;;;;;;2.63;0.33;;;16.30;99.90;;;;;;5115479;28;20192;-78
2022/09/21 11:32:56;;;;;;;0.40;0.30;;;16.30;99.90;;;;;;5114513;28;20428;-80
2022/09/21 11:35:35;;;;;;;1.77;0.43;;;16.30;99.90;;;;;;5115247;28;20450;-80
2022/09/21 11:38:12;;;;;;;0.40;0.40;;;16.20;99.90;;;;;;5115280;28;20496;-80
2022/09/21 11:41:11;;;;;;;0.40;0.30;;;15.80;99.90;;;;;;5115164;28;20423;-79
2022/09/21 11:43:58;;;;;;;6.27;0.40;;;15.40;99.90;;;;;;5114965;28;20534;-79
2022/09/21 11:46:33;;;;;;;1.03;0.40;;;15.20;99.90;;;;;;5115065;28;20828;-80
2022/09/21 11:49:26;;;;;;;0.30;0.30;;;15.30;99.90;;;;;;5114972;28;20433;-79
2022/09/21 11:52:11;;;;;;;0.37;0.30;;;15.20;99.90;;;;;;5114944;28;20450;-80
2022/09/21 11:55:08;;;;;;;0.30;0.30;;;15.30;99.90;;;;;;5114785;28;20459;-80
2022/09/21 11:57:43;;;;;;;0.40;0.40;;;15.40;99.90;;;;;;5114573;28;20465;-81
2022/09/21 12:00:15;;;;;;;0.50;0.40;;;15.60;99.90;;;;;;5114773;28;20522;-79
2022/09/21 12:03:26;;;;;;;0.55;0.55;;;15.60;99.90;;;;;;5114696;28;20434;-78
2022/09/21 12:06:06;;;;;;;0.40;0.30;;;15.60;99.90;;;;;;5114340;28;20217;-80
2022/09/21 12:09:10;;;;;;;0.30;0.30;;;15.50;99.90;;;;;;5114563;28;20808;-83
2022/09/21 12:11:43;;;;;;;0.30;0.30;;;15.40;99.90;;;;;;5114250;28;20950;-78
2022/09/21 12:14:21;;;;;;;0.30;0.30;;;15.30;99.90;;;;;;5114454;28;20459;-79
2022/09/21 12:16:55;;;;;;;0.40;0.30;;;15.30;99.90;;;;;;5114444;28;20429;-78
2022/09/21 12:19:32;;;;;;;0.40;0.30;;;15.40;99.90;;;;;;5114410;28;20189;-79
2022/09/21 12:22:05;;;;;;;0.30;0.30;;;15.40;99.90;;;;;;5114346;28;20518;-80
2022/09/21 12:24:36;;;;;;;0.30;0.30;;;15.30;99.90;;;;;;5114182;28;20498;-78
2022/09/21 12:27:09;;;;;;;0.40;0.30;;;15.20;99.90;;;;;;5114056;28;20546;-79
2022/09/21 12:29:42;;;;;;;0.40;0.30;;;15.10;99.90;;;;;;5114255;28;20450;-78
2022/09/21 12:32:18;;;;;;;0.30;0.30;;;15.00;99.90;;;;;;5114174;28;20436;-79
2022/09/21 12:34:49;;;;;;;0.40;0.30;;;15.00;99.90;;;;;;5114132;28;20474;-79
2022/09/21 12:37:22;;;;;;;0.40;0.37;;;15.00;99.90;;;;;;5113860;28;20895;-79
2022/09/21 12:39:53;;;;;;;0.30;0.30;;;15.00;99.90;;;;;;5114102;28;20459;-78
2022/09/21 12:42:28;;;;;;;0.40;0.30;;;15.00;99.90;;;;;;5114076;28;20428;-78
2022/09/21 12:44:59;;;;;;;0.40;0.30;;;15.10;99.90;;;;;;5113068;28;20482;-78
2022/09/21 12:47:41;;;;;;;0.40;0.30;;;15.10;99.90;;;;;;5113983;28;20427;-78
2022/09/21 12:50:19;;;;;;;0.30;0.30;;;15.10;99.90;;;;;;5113962;28;20434;-78
2022/09/21 12:52:47;;;;;;;1.03;0.50;;;15.20;99.90;;;;;;5113833;28;20427;-78
2022/09/21 12:55:31;;;;;;;0.40;0.35;;;15.20;99.90;;;;;;5113882;28;20461;-79
2022/09/21 12:58:04;;;;;;;0.40;0.37;;;15.10;99.90;;;;;;5113933;28;20189;-78
2022/09/21 13:00:39;;;;;;;0.40;0.30;;;15.10;99.90;;;;;;5113870;28;20443;-79
2022/09/21 13:03:15;;;;;;;0.30;0.30;;;15.00;99.90;;;;;;5113773;28;20485;-77
2022/09/21 13:05:51;;;;;;;0.40;0.30;;;14.90;99.90;;;;;;5113748;28;20458;-78
2022/09/21 13:08:24;;;;;;;0.40;0.30;;;14.90;99.90;;;;;;5114064;28;20436;-76
2022/09/21 13:10:59;;;;;;;0.40;0.40;;;15.00;99.90;;;;;;5113502;28;20824;-75
2022/09/21 13:13:29;;;;;;;0.60;0.50;;;15.10;99.90;;;;;;5113677;28;20554;-75
2022/09/21 13:15:58;;;;;;;0.30;0.30;;;15.00;99.90;;;;;;5113948;28;20436;-76
2022/09/21 13:18:28;;;;;;;0.50;0.40;;;15.00;99.90;;;;;;5113648;28;20447;-74
2022/09/21 13:20:56;;;;;;;0.90;0.30;;;14.90;99.90;;;;;;5113394;28;20412;-76